sensor_id;sensor_type;location;lat;lon;timestamp;temperature;humidity
25512;DHT22;13414;44.534;18.700;2023-06-01T00:01:03;16.30;99.90
25512;DHT22;13414;44.534;18.700;2023-06-01T00:03:31;16.30;99.90
25512;DHT22;13414;44.534;18.700;2023-06-01T00:05:59;16.20;99.90
25512;DHT22;13414;44.534;18.700;2023-06-01T00:08:27;16.20;99.90
25512;DHT22;13414;44.534;18.700;2023-06-01T00:10:54;16.10;99.90
25512;DHT22;13414;44.534;18.700;2023-06-01T00:13:22;16.10;99.90
25512;DHT22;13414;44.534;18.700;2023-06-01T00:15:49;16.00;99.90
25512;DHT22;13414;44.534;18.700;2023-06-01T00:18:17;16.00;99.90
25512;DHT22;13414;44.534;18.700;2023-06-01T00:20:44;15.80;99.90
25512;DHT22;13414;44.534;18.700;2023-06-01T00:23:13;15.80;99.90
25512;DHT22;13414;44.534;18.700;2023-06-01T00:25:41;15.80;99.90
25512;DHT22;13414;44.534;18.700;2023-06-01T00:28:10;15.80;99.90
25512;DHT22;13414;44.534;18.700;2023-06-01T00:30:38;15.70;99.90
25512;DHT22;13414;44.534;18.700;2023-06-01T00:33:06;15.70;99.90
25512;DHT22;13414;44.534;18.700;2023-06-01T00:35:33;15.60;99.90
25512;DHT22;13414;44.534;18.700;2023-06-01T00:38:00;15.60;99.90
25512;DHT22;13414;44.534;18.700;2023-06-01T00:40:29;15.60;99.90
25512;DHT22;13414;44.534;18.700;2023-06-01T00:42:57;15.60;99.90
25512;DHT22;13414;44.534;18.700;2023-06-01T00:45:25;15.60;99.90
25512;DHT22;13414;44.534;18.700;2023-06-01T00:47:53;15.60;99.90
25512;DHT22;13414;44.534;18.700;2023-06-01T00:50:21;15.50;99.90
25512;DHT22;13414;44.534;18.700;2023-06-01T00:52:49;15.50;99.90
25512;DHT22;13414;44.534;18.700;2023-06-01T00:55:19;15.50;99.90
25512;DHT22;13414;44.534;18.700;2023-06-01T00:57:49;15.50;99.90
25512;DHT22;13414;44.534;18.700;2023-06-01T01:00:17;15.40;99.90
25512;DHT22;13414;44.534;18.700;2023-06-01T01:02:46;15.30;99.90
25512;DHT22;13414;44.534;18.700;2023-06-01T01:05:15;15.30;99.90
25512;DHT22;13414;44.534;18.700;2023-06-01T01:07:54;15.20;99.90
25512;DHT22;13414;44.534;18.700;2023-06-01T01:10:32;15.20;99.90
25512;DHT22;13414;44.534;18.700;2023-06-01T01:13:08;15.20;99.90
25512;DHT22;13414;44.534;18.700;2023-06-01T01:15:44;15.10;99.90
25512;DHT22;13414;44.534;18.700;2023-06-01T01:18:33;15.00;99.90
25512;DHT22;13414;44.534;18.700;2023-06-01T01:21:03;15.10;99.90
25512;DHT22;13414;44.534;18.700;2023-06-01T01:24:02;15.10;99.90
25512;DHT22;13414;44.534;18.700;2023-06-01T01:26:46;15.10;99.90
25512;DHT22;13414;44.534;18.700;2023-06-01T01:29:22;15.10;99.90
25512;DHT22;13414;44.534;18.700;2023-06-01T01:31:50;15.10;99.90
25512;DHT22;13414;44.534;18.700;2023-06-01T01:34:19;15.10;99.90
25512;DHT22;13414;44.534;18.700;2023-06-01T01:36:47;15.10;99.90
25512;DHT22;13414;44.534;18.700;2023-06-01T01:39:15;15.10;99.90
25512;DHT22;13414;44.534;18.700;2023-06-01T01:41:42;15.10;99.90
25512;DHT22;13414;44.534;18.700;2023-06-01T01:44:09;15.20;99.90
25512;DHT22;13414;44.534;18.700;2023-06-01T01:46:46;15.20;99.90
25512;DHT22;13414;44.534;18.700;2023-06-01T01:49:18;15.10;99.90
25512;DHT22;13414;44.534;18.700;2023-06-01T01:51:52;15.10;99.90
25512;DHT22;13414;44.534;18.700;2023-06-01T01:54:21;15.10;99.90
25512;DHT22;13414;44.534;18.700;2023-06-01T01:56:52;15.10;99.90
25512;DHT22;13414;44.534;18.700;2023-06-01T01:59:21;15.10;99.90
25512;DHT22;13414;44.534;18.700;2023-06-01T02:01:50;15.10;99.90
25512;DHT22;13414;44.534;18.700;2023-06-01T02:04:18;15.10;99.90
25512;DHT22;13414;44.534;18.700;2023-06-01T02:06:45;15.20;99.90
25512;DHT22;13414;44.534;18.700;2023-06-01T02:09:13;15.20;99.90
25512;DHT22;13414;44.534;18.700;2023-06-01T02:11:42;15.30;99.90
25512;DHT22;13414;44.534;18.700;2023-06-01T02:14:10;15.20;99.90
25512;DHT22;13414;44.534;18.700;2023-06-01T02:16:38;15.20;99.90
25512;DHT22;13414;44.534;18.700;2023-06-01T02:19:07;15.10;99.90
25512;DHT22;13414;44.534;18.700;2023-06-01T02:21:37;15.00;99.90
25512;DHT22;13414;44.534;18.700;2023-06-01T02:24:05;15.00;99.90
25512;DHT22;13414;44.534;18.700;2023-06-01T02:26:33;15.00;99.90
25512;DHT22;13414;44.534;18.700;2023-06-01T02:29:00;15.00;99.90
25512;DHT22;13414;44.534;18.700;2023-06-01T02:31:31;15.00;99.90
25512;DHT22;13414;44.534;18.700;2023-06-01T02:33:59;15.00;99.90
25512;DHT22;13414;44.534;18.700;2023-06-01T02:36:29;15.00;99.90
25512;DHT22;13414;44.534;18.700;2023-06-01T02:38:58;15.00;99.90
25512;DHT22;13414;44.534;18.700;2023-06-01T02:41:26;15.00;99.90
25512;DHT22;13414;44.534;18.700;2023-06-01T02:43:55;15.00;99.90
25512;DHT22;13414;44.534;18.700;2023-06-01T02:46:22;15.00;99.90
25512;DHT22;13414;44.534;18.700;2023-06-01T02:48:50;15.00;99.90
25512;DHT22;13414;44.534;18.700;2023-06-01T02:51:19;15.00;99.90
25512;DHT22;13414;44.534;18.700;2023-06-01T02:53:51;14.90;99.90
25512;DHT22;13414;44.534;18.700;2023-06-01T02:56:19;15.00;99.90
25512;DHT22;13414;44.534;18.700;2023-06-01T02:58:58;14.90;99.90
25512;DHT22;13414;44.534;18.700;2023-06-01T03:01:31;14.90;99.90
25512;DHT22;13414;44.534;18.700;2023-06-01T03:04:01;14.90;99.90
25512;DHT22;13414;44.534;18.700;2023-06-01T03:06:31;14.90;99.90
25512;DHT22;13414;44.534;18.700;2023-06-01T03:09:33;14.90;99.90
25512;DHT22;13414;44.534;18.700;2023-06-01T03:12:18;14.90;99.90
25512;DHT22;13414;44.534;18.700;2023-06-01T03:14:45;14.90;99.90
25512;DHT22;13414;44.534;18.700;2023-06-01T03:17:13;14.90;99.90
25512;DHT22;13414;44.534;18.700;2023-06-01T03:19:40;14.90;99.90
25512;DHT22;13414;44.534;18.700;2023-06-01T03:22:20;14.90;99.90
25512;DHT22;13414;44.534;18.700;2023-06-01T03:24:49;15.00;99.90
25512;DHT22;13414;44.534;18.700;2023-06-01T03:27:21;15.00;99.90
25512;DHT22;13414;44.534;18.700;2023-06-01T03:29:49;14.90;99.90
25512;DHT22;13414;44.534;18.700;2023-06-01T03:32:17;14.90;99.90
25512;DHT22;13414;44.534;18.700;2023-06-01T03:34:45;14.90;99.90
25512;DHT22;13414;44.534;18.700;2023-06-01T03:37:12;14.90;99.90
25512;DHT22;13414;44.534;18.700;2023-06-01T03:39:40;15.00;99.90
25512;DHT22;13414;44.534;18.700;2023-06-01T03:42:12;15.00;99.90
25512;DHT22;13414;44.534;18.700;2023-06-01T03:44:39;15.10;99.90
25512;DHT22;13414;44.534;18.700;2023-06-01T03:47:07;15.10;99.90
25512;DHT22;13414;44.534;18.700;2023-06-01T03:49:35;15.10;99.90
25512;DHT22;13414;44.534;18.700;2023-06-01T03:52:06;15.20;99.90
25512;DHT22;13414;44.534;18.700;2023-06-01T03:54:34;15.20;99.90
25512;DHT22;13414;44.534;18.700;2023-06-01T03:57:03;15.20;99.90
25512;DHT22;13414;44.534;18.700;2023-06-01T03:59:32;15.20;99.90
25512;DHT22;13414;44.534;18.700;2023-06-01T04:02:00;15.20;99.90
25512;DHT22;13414;44.534;18.700;2023-06-01T04:04:29;15.30;99.90
25512;DHT22;13414;44.534;18.700;2023-06-01T04:06:56;15.40;99.90
25512;DHT22;13414;44.534;18.700;2023-06-01T04:09:28;15.40;99.90
25512;DHT22;13414;44.534;18.700;2023-06-01T04:11:55;15.40;99.90
25512;DHT22;13414;44.534;18.700;2023-06-01T04:14:23;15.40;99.90
25512;DHT22;13414;44.534;18.700;2023-06-01T04:16:52;15.50;99.90
25512;DHT22;13414;44.534;18.700;2023-06-01T04:19:20;15.60;99.90
25512;DHT22;13414;44.534;18.700;2023-06-01T04:21:51;15.70;99.90
25512;DHT22;13414;44.534;18.700;2023-06-01T04:24:19;15.70;99.90
25512;DHT22;13414;44.534;18.700;2023-06-01T04:26:47;15.70;99.90
25512;DHT22;13414;44.534;18.700;2023-06-01T04:29:16;15.70;99.90
25512;DHT22;13414;44.534;18.700;2023-06-01T04:31:45;15.80;99.90
25512;DHT22;13414;44.534;18.700;2023-06-01T04:34:14;15.90;99.90
25512;DHT22;13414;44.534;18.700;2023-06-01T04:36:41;15.90;99.90
25512;DHT22;13414;44.534;18.700;2023-06-01T04:39:10;15.90;99.90
25512;DHT22;13414;44.534;18.700;2023-06-01T04:41:38;15.80;99.90
25512;DHT22;13414;44.534;18.700;2023-06-01T04:44:06;15.80;99.90
25512;DHT22;13414;44.534;18.700;2023-06-01T04:46:34;15.90;99.90
25512;DHT22;13414;44.534;18.700;2023-06-01T04:49:05;15.90;99.90
25512;DHT22;13414;44.534;18.700;2023-06-01T04:51:34;16.00;99.90
25512;DHT22;13414;44.534;18.700;2023-06-01T04:54:02;16.20;99.90
25512;DHT22;13414;44.534;18.700;2023-06-01T04:56:30;16.40;99.90
25512;DHT22;13414;44.534;18.700;2023-06-01T04:58:57;16.50;99.90
25512;DHT22;13414;44.534;18.700;2023-06-01T05:01:29;16.50;99.90
25512;DHT22;13414;44.534;18.700;2023-06-01T05:03:56;16.50;99.90
25512;DHT22;13414;44.534;18.700;2023-06-01T05:06:25;16.50;99.90
25512;DHT22;13414;44.534;18.700;2023-06-01T05:08:55;16.50;99.90
25512;DHT22;13414;44.534;18.700;2023-06-01T05:11:23;16.60;99.90
25512;DHT22;13414;44.534;18.700;2023-06-01T05:13:52;16.60;99.90
25512;DHT22;13414;44.534;18.700;2023-06-01T05:16:24;16.70;99.90
25512;DHT22;13414;44.534;18.700;2023-06-01T05:18:52;16.70;99.90
25512;DHT22;13414;44.534;18.700;2023-06-01T05:21:19;16.70;99.90
25512;DHT22;13414;44.534;18.700;2023-06-01T05:23:47;16.70;99.90
25512;DHT22;13414;44.534;18.700;2023-06-01T05:26:16;16.70;99.90
25512;DHT22;13414;44.534;18.700;2023-06-01T05:28:44;16.70;99.90
25512;DHT22;13414;44.534;18.700;2023-06-01T05:31:12;16.70;99.90
25512;DHT22;13414;44.534;18.700;2023-06-01T05:33:53;16.60;99.90
25512;DHT22;13414;44.534;18.700;2023-06-01T05:36:22;16.60;99.90
25512;DHT22;13414;44.534;18.700;2023-06-01T05:38:50;16.50;99.90
25512;DHT22;13414;44.534;18.700;2023-06-01T05:41:19;16.50;99.90
25512;DHT22;13414;44.534;18.700;2023-06-01T05:43:47;16.40;99.90
25512;DHT22;13414;44.534;18.700;2023-06-01T05:46:17;16.50;99.90
25512;DHT22;13414;44.534;18.700;2023-06-01T05:48:45;16.50;99.90
25512;DHT22;13414;44.534;18.700;2023-06-01T05:51:14;16.60;99.90
25512;DHT22;13414;44.534;18.700;2023-06-01T05:53:42;16.60;99.90
25512;DHT22;13414;44.534;18.700;2023-06-01T05:56:09;16.70;99.90
25512;DHT22;13414;44.534;18.700;2023-06-01T05:58:38;16.70;99.90
25512;DHT22;13414;44.534;18.700;2023-06-01T06:01:07;16.70;99.90
25512;DHT22;13414;44.534;18.700;2023-06-01T06:03:35;16.70;99.90
25512;DHT22;13414;44.534;18.700;2023-06-01T06:06:04;16.90;99.90
25512;DHT22;13414;44.534;18.700;2023-06-01T06:08:31;16.90;99.90
25512;DHT22;13414;44.534;18.700;2023-06-01T06:10:59;17.10;99.90
25512;DHT22;13414;44.534;18.700;2023-06-01T06:13:26;17.20;99.90
25512;DHT22;13414;44.534;18.700;2023-06-01T06:15:55;17.40;99.90
25512;DHT22;13414;44.534;18.700;2023-06-01T06:18:22;17.70;99.90
25512;DHT22;13414;44.534;18.700;2023-06-01T06:20:50;17.90;99.90
25512;DHT22;13414;44.534;18.700;2023-06-01T06:23:17;18.00;99.90
25512;DHT22;13414;44.534;18.700;2023-06-01T06:25:46;17.90;99.90
25512;DHT22;13414;44.534;18.700;2023-06-01T06:28:14;17.90;99.90
25512;DHT22;13414;44.534;18.700;2023-06-01T06:30:42;17.90;99.90
25512;DHT22;13414;44.534;18.700;2023-06-01T06:33:11;18.30;99.90
25512;DHT22;13414;44.534;18.700;2023-06-01T06:48:57;20.60;99.90
25512;DHT22;13414;44.534;18.700;2023-06-01T06:51:24;23.10;99.90
25512;DHT22;13414;44.534;18.700;2023-06-01T06:54:06;23.00;99.90
25512;DHT22;13414;44.534;18.700;2023-06-01T06:56:33;23.30;99.90
25512;DHT22;13414;44.534;18.700;2023-06-01T06:59:01;23.50;99.90
25512;DHT22;13414;44.534;18.700;2023-06-01T07:01:28;23.20;99.90
25512;DHT22;13414;44.534;18.700;2023-06-01T07:03:57;23.30;99.90
25512;DHT22;13414;44.534;18.700;2023-06-01T07:06:25;23.30;99.90
25512;DHT22;13414;44.534;18.700;2023-06-01T07:08:52;23.10;99.90
25512;DHT22;13414;44.534;18.700;2023-06-01T07:11:20;23.00;99.90
25512;DHT22;13414;44.534;18.700;2023-06-01T07:13:48;22.40;99.90
25512;DHT22;13414;44.534;18.700;2023-06-01T07:16:15;22.10;99.90
25512;DHT22;13414;44.534;18.700;2023-06-01T07:18:43;22.00;99.90
25512;DHT22;13414;44.534;18.700;2023-06-01T07:21:11;22.20;99.90
25512;DHT22;13414;44.534;18.700;2023-06-01T07:23:41;21.80;99.90
25512;DHT22;13414;44.534;18.700;2023-06-01T07:26:09;21.70;99.90
25512;DHT22;13414;44.534;18.700;2023-06-01T07:28:36;21.50;99.90
25512;DHT22;13414;44.534;18.700;2023-06-01T07:31:04;21.80;99.90
25512;DHT22;13414;44.534;18.700;2023-06-01T07:33:31;22.00;99.90
25512;DHT22;13414;44.534;18.700;2023-06-01T07:36:01;22.60;99.90
25512;DHT22;13414;44.534;18.700;2023-06-01T07:38:30;22.80;99.90
25512;DHT22;13414;44.534;18.700;2023-06-01T07:40:59;23.10;99.90
25512;DHT22;13414;44.534;18.700;2023-06-01T07:43:26;23.40;99.90
25512;DHT22;13414;44.534;18.700;2023-06-01T07:45:54;23.70;99.90
25512;DHT22;13414;44.534;18.700;2023-06-01T07:48:22;24.00;99.90
25512;DHT22;13414;44.534;18.700;2023-06-01T07:50:49;24.50;99.90
25512;DHT22;13414;44.534;18.700;2023-06-01T07:53:18;24.90;99.90
25512;DHT22;13414;44.534;18.700;2023-06-01T07:55:47;25.00;99.90
25512;DHT22;13414;44.534;18.700;2023-06-01T07:58:16;24.90;99.90
25512;DHT22;13414;44.534;18.700;2023-06-01T08:00:43;24.90;99.90
25512;DHT22;13414;44.534;18.700;2023-06-01T08:03:11;24.70;99.90
25512;DHT22;13414;44.534;18.700;2023-06-01T08:05:40;24.80;99.90
25512;DHT22;13414;44.534;18.700;2023-06-01T08:08:08;25.40;99.90
25512;DHT22;13414;44.534;18.700;2023-06-01T08:10:36;26.10;99.90
25512;DHT22;13414;44.534;18.700;2023-06-01T08:13:06;26.20;99.90
25512;DHT22;13414;44.534;18.700;2023-06-01T08:15:34;25.80;99.90
25512;DHT22;13414;44.534;18.700;2023-06-01T08:18:03;25.10;99.90
25512;DHT22;13414;44.534;18.700;2023-06-01T08:20:30;24.70;99.90
25512;DHT22;13414;44.534;18.700;2023-06-01T08:22:59;24.50;99.90
25512;DHT22;13414;44.534;18.700;2023-06-01T08:25:27;24.30;99.90
25512;DHT22;13414;44.534;18.700;2023-06-01T08:27:55;24.30;99.90
25512;DHT22;13414;44.534;18.700;2023-06-01T08:30:25;24.40;99.90
25512;DHT22;13414;44.534;18.700;2023-06-01T08:32:52;24.80;99.90
25512;DHT22;13414;44.534;18.700;2023-06-01T08:35:20;24.80;99.90
25512;DHT22;13414;44.534;18.700;2023-06-01T08:37:48;24.80;99.90
25512;DHT22;13414;44.534;18.700;2023-06-01T08:40:15;24.90;99.90
25512;DHT22;13414;44.534;18.700;2023-06-01T08:42:49;24.90;99.90
25512;DHT22;13414;44.534;18.700;2023-06-01T08:45:20;25.00;99.90
25512;DHT22;13414;44.534;18.700;2023-06-01T08:47:53;25.00;99.90
25512;DHT22;13414;44.534;18.700;2023-06-01T08:50:21;25.10;99.90
25512;DHT22;13414;44.534;18.700;2023-06-01T08:52:49;25.10;99.90
25512;DHT22;13414;44.534;18.700;2023-06-01T08:55:21;24.90;99.90
25512;DHT22;13414;44.534;18.700;2023-06-01T08:57:49;24.70;99.90
25512;DHT22;13414;44.534;18.700;2023-06-01T09:00:17;24.60;99.90
25512;DHT22;13414;44.534;18.700;2023-06-01T09:02:45;24.70;99.90
25512;DHT22;13414;44.534;18.700;2023-06-01T09:05:15;24.50;99.90
25512;DHT22;13414;44.534;18.700;2023-06-01T09:07:43;24.40;99.90
25512;DHT22;13414;44.534;18.700;2023-06-01T09:10:10;24.80;99.90
25512;DHT22;13414;44.534;18.700;2023-06-01T09:12:38;25.10;99.90
25512;DHT22;13414;44.534;18.700;2023-06-01T09:15:18;25.50;99.90
25512;DHT22;13414;44.534;18.700;2023-06-01T09:17:49;25.60;99.90
25512;DHT22;13414;44.534;18.700;2023-06-01T09:20:24;25.50;99.90
25512;DHT22;13414;44.534;18.700;2023-06-01T09:22:53;25.20;99.90
25512;DHT22;13414;44.534;18.700;2023-06-01T09:25:24;25.60;99.90
25512;DHT22;13414;44.534;18.700;2023-06-01T09:28:00;25.70;99.90
25512;DHT22;13414;44.534;18.700;2023-06-01T09:30:38;25.60;99.90
25512;DHT22;13414;44.534;18.700;2023-06-01T09:33:14;25.60;99.90
25512;DHT22;13414;44.534;18.700;2023-06-01T09:35:44;26.10;99.90
25512;DHT22;13414;44.534;18.700;2023-06-01T09:38:19;26.20;99.90
25512;DHT22;13414;44.534;18.700;2023-06-01T09:40:56;26.10;99.90
25512;DHT22;13414;44.534;18.700;2023-06-01T09:43:23;26.40;99.90
25512;DHT22;13414;44.534;18.700;2023-06-01T09:46:07;26.50;99.90
25512;DHT22;13414;44.534;18.700;2023-06-01T09:48:34;26.60;99.90
25512;DHT22;13414;44.534;18.700;2023-06-01T09:51:04;26.70;99.80
25512;DHT22;13414;44.534;18.700;2023-06-01T09:53:40;26.60;99.80
25512;DHT22;13414;44.534;18.700;2023-06-01T09:56:07;27.00;98.30
25512;DHT22;13414;44.534;18.700;2023-06-01T09:58:35;27.40;98.10
25512;DHT22;13414;44.534;18.700;2023-06-01T10:01:05;28.00;95.20
25512;DHT22;13414;44.534;18.700;2023-06-01T10:03:40;28.30;93.50
25512;DHT22;13414;44.534;18.700;2023-06-01T10:06:11;28.50;92.30
25512;DHT22;13414;44.534;18.700;2023-06-01T10:08:39;28.80;91.10
25512;DHT22;13414;44.534;18.700;2023-06-01T10:11:07;28.50;90.40
25512;DHT22;13414;44.534;18.700;2023-06-01T10:13:35;28.20;90.80
25512;DHT22;13414;44.534;18.700;2023-06-01T10:16:03;27.60;92.50
25512;DHT22;13414;44.534;18.700;2023-06-01T10:18:31;27.20;93.40
25512;DHT22;13414;44.534;18.700;2023-06-01T10:20:58;27.00;93.70
25512;DHT22;13414;44.534;18.700;2023-06-01T10:23:28;26.80;93.90
25512;DHT22;13414;44.534;18.700;2023-06-01T10:25:55;26.90;93.80
25512;DHT22;13414;44.534;18.700;2023-06-01T10:28:25;27.10;94.20
25512;DHT22;13414;44.534;18.700;2023-06-01T10:31:32;27.30;93.50
25512;DHT22;13414;44.534;18.700;2023-06-01T10:33:59;27.20;93.50
25512;DHT22;13414;44.534;18.700;2023-06-01T10:39:30;27.30;93.70
25512;DHT22;13414;44.534;18.700;2023-06-01T10:41:58;27.10;92.20
25512;DHT22;13414;44.534;18.700;2023-06-01T10:44:46;27.20;92.60
25512;DHT22;13414;44.534;18.700;2023-06-01T10:47:44;27.50;91.60
25512;DHT22;13414;44.534;18.700;2023-06-01T10:50:17;27.50;91.80
25512;DHT22;13414;44.534;18.700;2023-06-01T10:52:46;27.40;91.30
25512;DHT22;13414;44.534;18.700;2023-06-01T10:55:24;27.60;90.60
25512;DHT22;13414;44.534;18.700;2023-06-01T11:00:39;27.60;88.50
25512;DHT22;13414;44.534;18.700;2023-06-01T11:03:06;27.80;88.50
25512;DHT22;13414;44.534;18.700;2023-06-01T11:05:44;28.00;87.90
25512;DHT22;13414;44.534;18.700;2023-06-01T11:08:54;28.20;87.70
25512;DHT22;13414;44.534;18.700;2023-06-01T11:11:57;28.10;87.40
25512;DHT22;13414;44.534;18.700;2023-06-01T11:14:27;27.90;90.10
25512;DHT22;13414;44.534;18.700;2023-06-01T11:16:56;27.40;90.00
25512;DHT22;13414;44.534;18.700;2023-06-01T11:19:44;27.20;90.70
25512;DHT22;13414;44.534;18.700;2023-06-01T11:22:13;27.00;91.60
25512;DHT22;13414;44.534;18.700;2023-06-01T11:24:43;27.10;92.20
25512;DHT22;13414;44.534;18.700;2023-06-01T11:27:15;26.90;92.70
25512;DHT22;13414;44.534;18.700;2023-06-01T11:29:47;26.70;92.80
25512;DHT22;13414;44.534;18.700;2023-06-01T11:32:16;26.60;92.10
25512;DHT22;13414;44.534;18.700;2023-06-01T11:34:49;26.50;92.10
25512;DHT22;13414;44.534;18.700;2023-06-01T11:37:18;26.20;93.10
25512;DHT22;13414;44.534;18.700;2023-06-01T11:39:46;26.00;94.80
25512;DHT22;13414;44.534;18.700;2023-06-01T11:42:17;25.60;97.30
25512;DHT22;13414;44.534;18.700;2023-06-01T11:44:55;25.40;99.90
25512;DHT22;13414;44.534;18.700;2023-06-01T11:47:27;25.20;99.90
25512;DHT22;13414;44.534;18.700;2023-06-01T11:49:55;25.10;99.90
25512;DHT22;13414;44.534;18.700;2023-06-01T11:52:23;24.90;99.90
25512;DHT22;13414;44.534;18.700;2023-06-01T11:54:50;24.80;99.90
25512;DHT22;13414;44.534;18.700;2023-06-01T11:57:20;24.90;99.90
25512;DHT22;13414;44.534;18.700;2023-06-01T11:59:48;25.10;99.90
25512;DHT22;13414;44.534;18.700;2023-06-01T12:02:17;25.30;99.90
25512;DHT22;13414;44.534;18.700;2023-06-01T12:04:56;25.40;99.90
25512;DHT22;13414;44.534;18.700;2023-06-01T12:07:25;25.30;99.90
25512;DHT22;13414;44.534;18.700;2023-06-01T12:09:53;25.40;99.90
25512;DHT22;13414;44.534;18.700;2023-06-01T12:12:23;25.30;99.90
25512;DHT22;13414;44.534;18.700;2023-06-01T12:14:51;25.10;99.90
25512;DHT22;13414;44.534;18.700;2023-06-01T12:17:19;25.00;99.90
25512;DHT22;13414;44.534;18.700;2023-06-01T12:19:47;24.50;99.90
25512;DHT22;13414;44.534;18.700;2023-06-01T12:22:15;24.10;99.90
25512;DHT22;13414;44.534;18.700;2023-06-01T12:24:44;23.90;99.90
25512;DHT22;13414;44.534;18.700;2023-06-01T12:27:16;23.60;99.90
25512;DHT22;13414;44.534;18.700;2023-06-01T12:29:47;23.20;99.90
25512;DHT22;13414;44.534;18.700;2023-06-01T12:32:16;23.00;99.90
25512;DHT22;13414;44.534;18.700;2023-06-01T12:34:44;23.00;99.90
25512;DHT22;13414;44.534;18.700;2023-06-01T12:37:29;23.20;99.90
25512;DHT22;13414;44.534;18.700;2023-06-01T12:39:56;23.30;99.90
25512;DHT22;13414;44.534;18.700;2023-06-01T12:42:34;23.40;99.90
25512;DHT22;13414;44.534;18.700;2023-06-01T12:45:05;23.50;99.90
25512;DHT22;13414;44.534;18.700;2023-06-01T12:47:36;23.70;99.90
25512;DHT22;13414;44.534;18.700;2023-06-01T12:50:06;23.70;99.90
25512;DHT22;13414;44.534;18.700;2023-06-01T12:52:34;23.60;99.90
25512;DHT22;13414;44.534;18.700;2023-06-01T12:55:01;23.60;99.90
25512;DHT22;13414;44.534;18.700;2023-06-01T12:57:30;23.70;99.90
25512;DHT22;13414;44.534;18.700;2023-06-01T12:59:57;23.60;99.90
25512;DHT22;13414;44.534;18.700;2023-06-01T13:02:27;23.60;99.90
25512;DHT22;13414;44.534;18.700;2023-06-01T13:04:55;23.60;99.90
25512;DHT22;13414;44.534;18.700;2023-06-01T13:07:23;23.70;99.90
25512;DHT22;13414;44.534;18.700;2023-06-01T13:09:50;23.80;99.90
25512;DHT22;13414;44.534;18.700;2023-06-01T13:12:19;23.90;99.90
25512;DHT22;13414;44.534;18.700;2023-06-01T13:14:47;23.90;99.90
25512;DHT22;13414;44.534;18.700;2023-06-01T13:17:15;23.90;99.90
25512;DHT22;13414;44.534;18.700;2023-06-01T13:19:45;24.10;99.90
25512;DHT22;13414;44.534;18.700;2023-06-01T13:22:12;24.00;99.90
25512;DHT22;13414;44.534;18.700;2023-06-01T13:24:41;24.00;99.90
25512;DHT22;13414;44.534;18.700;2023-06-01T13:27:10;24.00;99.90
25512;DHT22;13414;44.534;18.700;2023-06-01T13:29:37;24.20;99.90
25512;DHT22;13414;44.534;18.700;2023-06-01T13:32:05;24.40;99.90
25512;DHT22;13414;44.534;18.700;2023-06-01T13:34:33;24.60;99.90
25512;DHT22;13414;44.534;18.700;2023-06-01T13:37:03;24.80;99.90
25512;DHT22;13414;44.534;18.700;2023-06-01T13:39:30;25.00;99.90
25512;DHT22;13414;44.534;18.700;2023-06-01T13:41:58;25.30;99.90
25512;DHT22;13414;44.534;18.700;2023-06-01T13:44:26;25.40;99.90
25512;DHT22;13414;44.534;18.700;2023-06-01T13:46:54;25.60;99.90
25512;DHT22;13414;44.534;18.700;2023-06-01T13:49:22;25.70;99.90
25512;DHT22;13414;44.534;18.700;2023-06-01T13:51:49;25.60;99.90
25512;DHT22;13414;44.534;18.700;2023-06-01T13:54:18;25.40;99.90
25512;DHT22;13414;44.534;18.700;2023-06-01T13:56:45;25.30;99.90
25512;DHT22;13414;44.534;18.700;2023-06-01T13:59:13;25.30;99.90
25512;DHT22;13414;44.534;18.700;2023-06-01T14:01:41;25.40;99.90
25512;DHT22;13414;44.534;18.700;2023-06-01T14:04:08;25.40;99.90
25512;DHT22;13414;44.534;18.700;2023-06-01T14:06:35;25.30;99.90
25512;DHT22;13414;44.534;18.700;2023-06-01T14:09:03;25.20;99.90
25512;DHT22;13414;44.534;18.700;2023-06-01T14:11:32;25.30;99.90
25512;DHT22;13414;44.534;18.700;2023-06-01T14:13:59;25.40;99.90
25512;DHT22;13414;44.534;18.700;2023-06-01T14:16:26;25.50;99.90
25512;DHT22;13414;44.534;18.700;2023-06-01T14:18:54;25.40;99.90
25512;DHT22;13414;44.534;18.700;2023-06-01T14:21:21;25.50;99.90
25512;DHT22;13414;44.534;18.700;2023-06-01T14:23:49;25.60;99.90
25512;DHT22;13414;44.534;18.700;2023-06-01T14:26:16;25.50;99.90
25512;DHT22;13414;44.534;18.700;2023-06-01T14:28:45;25.50;99.90
25512;DHT22;13414;44.534;18.700;2023-06-01T14:31:13;25.50;99.90
25512;DHT22;13414;44.534;18.700;2023-06-01T14:33:40;25.50;99.90
25512;DHT22;13414;44.534;18.700;2023-06-01T14:36:08;25.30;99.90
25512;DHT22;13414;44.534;18.700;2023-06-01T14:38:36;25.40;99.90
25512;DHT22;13414;44.534;18.700;2023-06-01T14:41:03;25.30;99.90
25512;DHT22;13414;44.534;18.700;2023-06-01T14:43:30;25.30;99.90
25512;DHT22;13414;44.534;18.700;2023-06-01T14:45:59;25.20;99.90
25512;DHT22;13414;44.534;18.700;2023-06-01T14:48:27;25.10;99.90
25512;DHT22;13414;44.534;18.700;2023-06-01T14:50:54;25.10;99.90
25512;DHT22;13414;44.534;18.700;2023-06-01T14:53:22;25.10;99.90
25512;DHT22;13414;44.534;18.700;2023-06-01T14:55:50;24.90;99.90
25512;DHT22;13414;44.534;18.700;2023-06-01T14:58:17;24.80;99.90
25512;DHT22;13414;44.534;18.700;2023-06-01T15:00:44;24.70;99.90
25512;DHT22;13414;44.534;18.700;2023-06-01T15:03:14;24.40;99.90
25512;DHT22;13414;44.534;18.700;2023-06-01T15:05:41;24.30;99.90
25512;DHT22;13414;44.534;18.700;2023-06-01T15:08:09;24.20;99.90
25512;DHT22;13414;44.534;18.700;2023-06-01T15:10:37;24.10;99.90
25512;DHT22;13414;44.534;18.700;2023-06-01T15:13:04;23.90;99.90
25512;DHT22;13414;44.534;18.700;2023-06-01T15:15:31;23.70;99.90
25512;DHT22;13414;44.534;18.700;2023-06-01T15:17:59;23.60;99.90
25512;DHT22;13414;44.534;18.700;2023-06-01T15:20:28;23.60;99.90
25512;DHT22;13414;44.534;18.700;2023-06-01T15:22:56;23.60;99.90
25512;DHT22;13414;44.534;18.700;2023-06-01T15:25:24;23.50;99.90
25512;DHT22;13414;44.534;18.700;2023-06-01T15:27:51;23.50;99.90
25512;DHT22;13414;44.534;18.700;2023-06-01T15:30:18;23.40;99.90
25512;DHT22;13414;44.534;18.700;2023-06-01T15:32:48;23.30;99.90
25512;DHT22;13414;44.534;18.700;2023-06-01T15:35:16;23.40;99.90
25512;DHT22;13414;44.534;18.700;2023-06-01T15:37:49;23.40;99.90
25512;DHT22;13414;44.534;18.700;2023-06-01T15:40:17;23.40;99.90
25512;DHT22;13414;44.534;18.700;2023-06-01T15:42:44;23.40;99.90
25512;DHT22;13414;44.534;18.700;2023-06-01T15:45:12;23.40;99.90
25512;DHT22;13414;44.534;18.700;2023-06-01T15:47:39;23.40;99.90
25512;DHT22;13414;44.534;18.700;2023-06-01T15:50:08;23.50;99.90